機械バカ一代

機械モノおたくのたわごと。

スポンサーサイト

上記の広告は1ヶ月以上更新のないブログに表示されています。
新しい記事を書く事で広告が消せます。

スポンサー広告 |

QATAR-GP 決勝(今日はやるみたい)

LorenzoのPit-Box
今はレース前で、ちょこっとリラックス中。。
今日のウォームアップ中は、本家のPITにお邪魔してました。

昨日とうって変わって、今日は快晴。

Doha空港のTAFも・・

TAF OTBD 130839Z 1312/1418 08012KT CAVOK BECMG 1320/1322 20006KT BECMG 1406/1408 33018G28KT SKC TEMPO 1406/1415 4000 BLDU=

CAVOK (キャブオーケー = 本当に快晴) やSKC(スカイクリヤー = 快晴)です。
明日になると風が強くなりそうですが、
今日のところは、20006KT・・・南の風6ノット。

今夜は、ちゃんとレースできそうです。

レース後は、何かと忙しいので、今のうちにアップです。
スポンサーサイト

Moto GP | コメント:0 | トラックバック:0 |
<<QATAR-GP決勝日(レースやりました。) | HOME | QATAR-GP 決勝日(だったはず)>>

この記事のコメント

コメントの投稿















コメント非公開の場合はチェック

この記事のトラックバック

| HOME |
上記広告は1ヶ月以上更新のないブログに表示されています。新しい記事を書くことで広告を消せます。